Chris Hadfield Airport
CYZR : rendu visible

Aérodrome :











RETROUVEZ-NOUS SUR...

 
LOGIN :

S'inscrire | Disclaimer

   EN    FR    IT 

 









Légende :    VFR   VFR Marginal   IFR   IFR Intensif   IFR Très Intensif
Visi : 
Plafond : 
>= 8 km
>= 3000ft
5 à 8 km
1000 à 3000 ft
1500m à 5 km
500 à 1000 ft
800 à 1500m
200 à 500 ft
< 800m
< 200 ft
Symboles :   Orages  Brouillard  Fortes neiges  Fortes précipitations  Vent > 20 kt






- Altitude de l'aérodrome : 594 ft
- Code IATA : YZR


CYZR - Chris Hadfield

DERNIER METAR :
  • 222300Z AUTO 28007KT 9SM OVC035 01/M06 A3012 RMK RVR MISG SLP207

METARs EXPIRÉS :
  • 222200Z AUTO 31010G16KT 9SM OVC033 01/M06 A3009 RMK RVR MISG SLP199
  • 222100Z AUTO 30008G15KT 9SM OVC029 01/M04 A3008 RMK RVR MISG SLP195

TAF AMD TAF CYZR
Valide du 22 à 23h jusqu'au 23 à 03h UTC


222310Z 2223/2303 29008KT P6SM BKN030
FM230100 27008KT P6SM FEW030 RMK FCST BASED ON AUTO OBS. NXT FCST WILL BE ISSUED AT 230845Z



MET'MAP, la Météo Aéronautique d'un coup d'oeil ! - Copyright ORBIFLY Décembre 2007 - Disclaimer

ORBIFLY MET'MAP TEAM :

Programmation & Développement : Alexandra Zaïnal
Conception & Développement : Baudouin d'Aumeries
Co-Programmation & Développement : Marc-Olivier Méhu
Soutien technique & logistique : Manuel Goepfert

Contact : metmap@orbifly.com




SOURCES & CREDITS :

   NOAA       Earth
Advisory